sensor_id;sensor_type;location;lat;lon;timestamp;P1;durP1;ratioP1;P2;durP2;ratioP2
57331;SDS011;43164;50.908;18.092;2022-10-04T00:00:11;7.50;;;1.40;;
57331;SDS011;43164;50.908;18.092;2022-10-04T00:03:04;11.10;;;2.00;;
57331;SDS011;43164;50.908;18.092;2022-10-04T00:05:37;9.60;;;1.80;;
57331;SDS011;43164;50.908;18.092;2022-10-04T00:08:19;13.80;;;1.90;;
57331;SDS011;43164;50.908;18.092;2022-10-04T00:11:00;12.70;;;2.30;;
57331;SDS011;43164;50.908;18.092;2022-10-04T00:13:32;10.40;;;1.40;;
57331;SDS011;43164;50.908;18.092;2022-10-04T00:16:01;8.90;;;1.60;;
57331;SDS011;43164;50.908;18.092;2022-10-04T00:18:30;8.30;;;1.40;;
57331;SDS011;43164;50.908;18.092;2022-10-04T00:21:14;14.80;;;2.10;;
57331;SDS011;43164;50.908;18.092;2022-10-04T00:23:43;10.50;;;1.60;;
57331;SDS011;43164;50.908;18.092;2022-10-04T00:28:51;12.30;;;2.00;;
57331;SDS011;43164;50.908;18.092;2022-10-04T00:31:24;14.40;;;2.40;;
57331;SDS011;43164;50.908;18.092;2022-10-04T00:33:57;10.30;;;1.40;;
57331;SDS011;43164;50.908;18.092;2022-10-04T00:36:44;10.90;;;1.60;;
57331;SDS011;43164;50.908;18.092;2022-10-04T00:39:15;9.70;;;1.70;;
57331;SDS011;43164;50.908;18.092;2022-10-04T00:41:54;14.50;;;1.90;;
57331;SDS011;43164;50.908;18.092;2022-10-04T00:44:36;17.50;;;1.80;;
57331;SDS011;43164;50.908;18.092;2022-10-04T00:49:51;9.70;;;1.30;;
57331;SDS011;43164;50.908;18.092;2022-10-04T00:52:23;13.10;;;2.20;;
57331;SDS011;43164;50.908;18.092;2022-10-04T00:54:57;11.80;;;1.50;;
57331;SDS011;43164;50.908;18.092;2022-10-04T00:57:59;12.40;;;2.20;;
57331;SDS011;43164;50.908;18.092;2022-10-04T01:00:28;12.70;;;2.30;;
57331;SDS011;43164;50.908;18.092;2022-10-04T01:03:09;9.80;;;1.70;;
57331;SDS011;43164;50.908;18.092;2022-10-04T01:05:51;13.50;;;1.90;;
57331;SDS011;43164;50.908;18.092;2022-10-04T01:08:24;9.80;;;1.70;;
57331;SDS011;43164;50.908;18.092;2022-10-04T01:10:55;10.00;;;2.00;;
57331;SDS011;43164;50.908;18.092;2022-10-04T01:13:50;11.50;;;2.50;;
57331;SDS011;43164;50.908;18.092;2022-10-04T01:16:30;10.40;;;1.70;;
57331;SDS011;43164;50.908;18.092;2022-10-04T01:19:23;14.10;;;1.70;;
57331;SDS011;43164;50.908;18.092;2022-10-04T01:22:10;11.70;;;1.90;;
57331;SDS011;43164;50.908;18.092;2022-10-04T01:24:57;14.70;;;1.90;;
57331;SDS011;43164;50.908;18.092;2022-10-04T01:27:31;13.50;;;2.00;;
57331;SDS011;43164;50.908;18.092;2022-10-04T01:30:01;17.10;;;1.80;;
57331;SDS011;43164;50.908;18.092;2022-10-04T01:32:31;10.60;;;1.70;;
57331;SDS011;43164;50.908;18.092;2022-10-04T01:34:58;11.00;;;1.80;;
57331;SDS011;43164;50.908;18.092;2022-10-04T01:37:29;12.30;;;1.80;;
57331;SDS011;43164;50.908;18.092;2022-10-04T01:39:57;11.20;;;1.50;;
57331;SDS011;43164;50.908;18.092;2022-10-04T01:42:31;9.10;;;1.60;;
57331;SDS011;43164;50.908;18.092;2022-10-04T01:45:14;11.80;;;2.00;;
57331;SDS011;43164;50.908;18.092;2022-10-04T01:47:57;14.40;;;2.20;;
57331;SDS011;43164;50.908;18.092;2022-10-04T01:53:13;11.50;;;1.60;;
57331;SDS011;43164;50.908;18.092;2022-10-04T01:55:49;8.60;;;1.60;;
57331;SDS011;43164;50.908;18.092;2022-10-04T01:58:23;10.90;;;1.80;;
57331;SDS011;43164;50.908;18.092;2022-10-04T02:00:58;13.40;;;2.20;;
57331;SDS011;43164;50.908;18.092;2022-10-04T02:03:40;14.20;;;2.10;;
57331;SDS011;43164;50.908;18.092;2022-10-04T02:06:23;12.00;;;1.90;;
57331;SDS011;43164;50.908;18.092;2022-10-04T02:08:51;12.80;;;2.20;;
57331;SDS011;43164;50.908;18.092;2022-10-04T02:11:23;17.30;;;2.30;;
57331;SDS011;43164;50.908;18.092;2022-10-04T02:13:57;15.80;;;3.10;;
57331;SDS011;43164;50.908;18.092;2022-10-04T02:16:34;14.80;;;2.40;;
57331;SDS011;43164;50.908;18.092;2022-10-04T02:19:04;11.40;;;2.20;;
57331;SDS011;43164;50.908;18.092;2022-10-04T02:21:35;13.90;;;2.30;;
57331;SDS011;43164;50.908;18.092;2022-10-04T02:24:03;15.80;;;2.60;;
57331;SDS011;43164;50.908;18.092;2022-10-04T02:26:32;13.40;;;2.40;;
57331;SDS011;43164;50.908;18.092;2022-10-04T02:28:59;12.90;;;2.80;;
57331;SDS011;43164;50.908;18.092;2022-10-04T02:31:28;13.90;;;2.50;;
57331;SDS011;43164;50.908;18.092;2022-10-04T02:34:16;12.00;;;2.80;;
57331;SDS011;43164;50.908;18.092;2022-10-04T02:36:45;15.70;;;2.20;;
57331;SDS011;43164;50.908;18.092;2022-10-04T02:39:25;19.80;;;3.30;;
57331;SDS011;43164;50.908;18.092;2022-10-04T02:42:03;9.00;;;1.80;;
57331;SDS011;43164;50.908;18.092;2022-10-04T02:45:16;12.40;;;2.40;;
57331;SDS011;43164;50.908;18.092;2022-10-04T02:47:57;13.10;;;2.00;;
57331;SDS011;43164;50.908;18.092;2022-10-04T02:54:01;10.10;;;2.20;;
57331;SDS011;43164;50.908;18.092;2022-10-04T02:56:44;12.60;;;2.30;;
57331;SDS011;43164;50.908;18.092;2022-10-04T02:59:12;10.80;;;1.90;;
57331;SDS011;43164;50.908;18.092;2022-10-04T03:01:55;11.00;;;2.20;;
57331;SDS011;43164;50.908;18.092;2022-10-04T03:04:27;12.00;;;2.10;;
57331;SDS011;43164;50.908;18.092;2022-10-04T03:07:08;11.90;;;1.90;;
57331;SDS011;43164;50.908;18.092;2022-10-04T03:09:35;11.80;;;2.00;;
57331;SDS011;43164;50.908;18.092;2022-10-04T03:12:06;9.10;;;2.30;;
57331;SDS011;43164;50.908;18.092;2022-10-04T03:14:37;9.80;;;2.00;;
57331;SDS011;43164;50.908;18.092;2022-10-04T03:17:05;12.50;;;2.60;;
57331;SDS011;43164;50.908;18.092;2022-10-04T03:19:33;11.50;;;3.10;;
57331;SDS011;43164;50.908;18.092;2022-10-04T03:22:06;14.10;;;2.10;;
57331;SDS011;43164;50.908;18.092;2022-10-04T03:24:38;10.50;;;1.80;;
57331;SDS011;43164;50.908;18.092;2022-10-04T03:27:25;8.00;;;1.80;;
57331;SDS011;43164;50.908;18.092;2022-10-04T03:29:59;13.70;;;2.30;;
57331;SDS011;43164;50.908;18.092;2022-10-04T03:32:28;9.70;;;1.90;;
57331;SDS011;43164;50.908;18.092;2022-10-04T03:34:59;9.10;;;2.10;;
57331;SDS011;43164;50.908;18.092;2022-10-04T03:37:30;15.00;;;2.30;;
57331;SDS011;43164;50.908;18.092;2022-10-04T03:40:12;12.30;;;2.40;;
57331;SDS011;43164;50.908;18.092;2022-10-04T03:42:41;10.20;;;2.20;;
57331;SDS011;43164;50.908;18.092;2022-10-04T03:45:12;9.50;;;2.30;;
57331;SDS011;43164;50.908;18.092;2022-10-04T03:50:52;16.50;;;2.40;;
57331;SDS011;43164;50.908;18.092;2022-10-04T03:53:24;12.20;;;2.20;;
57331;SDS011;43164;50.908;18.092;2022-10-04T03:55:57;12.80;;;2.40;;
57331;SDS011;43164;50.908;18.092;2022-10-04T03:58:26;12.00;;;2.30;;
57331;SDS011;43164;50.908;18.092;2022-10-04T04:03:59;10.40;;;2.00;;
57331;SDS011;43164;50.908;18.092;2022-10-04T04:06:30;9.00;;;2.20;;
57331;SDS011;43164;50.908;18.092;2022-10-04T04:09:20;10.80;;;2.20;;
57331;SDS011;43164;50.908;18.092;2022-10-04T04:12:20;11.30;;;2.40;;
57331;SDS011;43164;50.908;18.092;2022-10-04T04:15:05;11.00;;;2.80;;
57331;SDS011;43164;50.908;18.092;2022-10-04T04:17:38;13.40;;;2.50;;
57331;SDS011;43164;50.908;18.092;2022-10-04T04:20:18;10.00;;;2.30;;
57331;SDS011;43164;50.908;18.092;2022-10-04T04:22:57;12.40;;;2.50;;
57331;SDS011;43164;50.908;18.092;2022-10-04T04:25:26;13.20;;;2.60;;
57331;SDS011;43164;50.908;18.092;2022-10-04T04:28:02;12.60;;;2.50;;
57331;SDS011;43164;50.908;18.092;2022-10-04T04:34:22;9.90;;;2.00;;
57331;SDS011;43164;50.908;18.092;2022-10-04T04:40:21;10.00;;;2.20;;
57331;SDS011;43164;50.908;18.092;2022-10-04T04:42:52;11.50;;;2.30;;
57331;SDS011;43164;50.908;18.092;2022-10-04T04:45:22;9.80;;;1.90;;
57331;SDS011;43164;50.908;18.092;2022-10-04T04:47:55;19.20;;;2.60;;
57331;SDS011;43164;50.908;18.092;2022-10-04T04:57:16;9.70;;;2.20;;
57331;SDS011;43164;50.908;18.092;2022-10-04T04:59:53;12.80;;;2.20;;
57331;SDS011;43164;50.908;18.092;2022-10-04T05:02:30;12.70;;;2.10;;
57331;SDS011;43164;50.908;18.092;2022-10-04T05:05:16;10.90;;;2.30;;
57331;SDS011;43164;50.908;18.092;2022-10-04T05:07:49;9.90;;;2.40;;
57331;SDS011;43164;50.908;18.092;2022-10-04T05:11:03;11.70;;;2.40;;
57331;SDS011;43164;50.908;18.092;2022-10-04T05:13:36;14.50;;;2.20;;
57331;SDS011;43164;50.908;18.092;2022-10-04T05:19:41;11.30;;;2.40;;
57331;SDS011;43164;50.908;18.092;2022-10-04T05:22:11;15.40;;;2.90;;
57331;SDS011;43164;50.908;18.092;2022-10-04T05:24:40;15.30;;;2.80;;
57331;SDS011;43164;50.908;18.092;2022-10-04T05:27:22;17.00;;;2.70;;
57331;SDS011;43164;50.908;18.092;2022-10-04T05:30:07;12.50;;;2.40;;
57331;SDS011;43164;50.908;18.092;2022-10-04T05:35:14;14.70;;;2.30;;
57331;SDS011;43164;50.908;18.092;2022-10-04T05:38:08;12.80;;;2.60;;
57331;SDS011;43164;50.908;18.092;2022-10-04T05:43:48;10.20;;;1.70;;
57331;SDS011;43164;50.908;18.092;2022-10-04T05:48:55;9.60;;;1.80;;
57331;SDS011;43164;50.908;18.092;2022-10-04T05:51:34;11.60;;;2.00;;
57331;SDS011;43164;50.908;18.092;2022-10-04T05:54:34;11.40;;;2.00;;
57331;SDS011;43164;50.908;18.092;2022-10-04T05:59:58;13.30;;;2.10;;
57331;SDS011;43164;50.908;18.092;2022-10-04T06:05:24;10.80;;;2.10;;
57331;SDS011;43164;50.908;18.092;2022-10-04T06:16:41;7.80;;;1.80;;
57331;SDS011;43164;50.908;18.092;2022-10-04T06:23:04;12.20;;;2.00;;
57331;SDS011;43164;50.908;18.092;2022-10-04T06:26:53;7.90;;;1.60;;
57331;SDS011;43164;50.908;18.092;2022-10-04T06:50:34;6.70;;;1.60;;
57331;SDS011;43164;50.908;18.092;2022-10-04T06:56:33;10.20;;;1.30;;
57331;SDS011;43164;50.908;18.092;2022-10-04T07:05:56;10.70;;;1.70;;
57331;SDS011;43164;50.908;18.092;2022-10-04T07:08:48;8.30;;;1.40;;
57331;SDS011;43164;50.908;18.092;2022-10-04T07:11:24;6.80;;;1.40;;
57331;SDS011;43164;50.908;18.092;2022-10-04T07:24:24;12.30;;;2.00;;
57331;SDS011;43164;50.908;18.092;2022-10-04T07:31:20;9.10;;;1.30;;
57331;SDS011;43164;50.908;18.092;2022-10-04T07:37:50;12.00;;;1.50;;
57331;SDS011;43164;50.908;18.092;2022-10-04T07:41:12;8.80;;;1.20;;
57331;SDS011;43164;50.908;18.092;2022-10-04T07:44:20;8.00;;;1.30;;
57331;SDS011;43164;50.908;18.092;2022-10-04T07:47:32;8.50;;;1.40;;
57331;SDS011;43164;50.908;18.092;2022-10-04T07:50:23;7.30;;;1.30;;
57331;SDS011;43164;50.908;18.092;2022-10-04T07:56:44;5.70;;;0.90;;
57331;SDS011;43164;50.908;18.092;2022-10-04T08:02:42;5.80;;;1.10;;
57331;SDS011;43164;50.908;18.092;2022-10-04T08:05:20;8.70;;;1.20;;
57331;SDS011;43164;50.908;18.092;2022-10-04T08:08:29;6.50;;;1.00;;
57331;SDS011;43164;50.908;18.092;2022-10-04T08:14:52;11.10;;;1.20;;
57331;SDS011;43164;50.908;18.092;2022-10-04T08:18:00;7.60;;;1.10;;
57331;SDS011;43164;50.908;18.092;2022-10-04T08:20:43;6.50;;;1.10;;
57331;SDS011;43164;50.908;18.092;2022-10-04T08:23:35;5.50;;;0.90;;
57331;SDS011;43164;50.908;18.092;2022-10-04T08:26:27;4.50;;;0.90;;
57331;SDS011;43164;50.908;18.092;2022-10-04T08:32:17;6.30;;;0.80;;
57331;SDS011;43164;50.908;18.092;2022-10-04T08:52:47;7.10;;;1.20;;
57331;SDS011;43164;50.908;18.092;2022-10-04T08:58:30;10.90;;;1.10;;
57331;SDS011;43164;50.908;18.092;2022-10-04T09:01:22;5.40;;;1.30;;
57331;SDS011;43164;50.908;18.092;2022-10-04T09:04:33;7.60;;;1.30;;
57331;SDS011;43164;50.908;18.092;2022-10-04T09:10:22;6.70;;;1.30;;
57331;SDS011;43164;50.908;18.092;2022-10-04T09:15:54;6.90;;;0.90;;
57331;SDS011;43164;50.908;18.092;2022-10-04T09:18:49;5.70;;;1.10;;
57331;SDS011;43164;50.908;18.092;2022-10-04T09:28:13;9.10;;;1.20;;
57331;SDS011;43164;50.908;18.092;2022-10-04T09:45:14;7.90;;;1.10;;
57331;SDS011;43164;50.908;18.092;2022-10-04T09:54:02;5.70;;;1.10;;
57331;SDS011;43164;50.908;18.092;2022-10-04T10:00:14;8.10;;;1.00;;
57331;SDS011;43164;50.908;18.092;2022-10-04T10:14:41;5.40;;;0.80;;
57331;SDS011;43164;50.908;18.092;2022-10-04T10:17:42;7.90;;;1.10;;
57331;SDS011;43164;50.908;18.092;2022-10-04T10:51:27;6.70;;;0.80;;
57331;SDS011;43164;50.908;18.092;2022-10-04T11:19:30;5.50;;;0.70;;
57331;SDS011;43164;50.908;18.092;2022-10-04T11:22:50;7.30;;;0.80;;
57331;SDS011;43164;50.908;18.092;2022-10-04T11:35:33;5.10;;;0.60;;
57331;SDS011;43164;50.908;18.092;2022-10-04T11:41:22;8.40;;;0.90;;
57331;SDS011;43164;50.908;18.092;2022-10-04T11:58:12;5.30;;;0.60;;
57331;SDS011;43164;50.908;18.092;2022-10-04T12:03:54;5.00;;;0.80;;
57331;SDS011;43164;50.908;18.092;2022-10-04T12:06:43;4.30;;;0.70;;
57331;SDS011;43164;50.908;18.092;2022-10-04T12:15:36;7.80;;;0.80;;
57331;SDS011;43164;50.908;18.092;2022-10-04T12:34:51;4.80;;;0.70;;
57331;SDS011;43164;50.908;18.092;2022-10-04T12:58:02;14.50;;;4.30;;
57331;SDS011;43164;50.908;18.092;2022-10-04T13:01:02;22.70;;;10.70;;
57331;SDS011;43164;50.908;18.092;2022-10-04T13:06:58;5.20;;;1.40;;
57331;SDS011;43164;50.908;18.092;2022-10-04T13:26:40;4.70;;;0.80;;
57331;SDS011;43164;50.908;18.092;2022-10-04T13:29:41;3.70;;;0.90;;
57331;SDS011;43164;50.908;18.092;2022-10-04T13:32:41;4.40;;;0.70;;
57331;SDS011;43164;50.908;18.092;2022-10-04T13:35:25;2.60;;;0.50;;
57331;SDS011;43164;50.908;18.092;2022-10-04T13:59:51;9.30;;;3.10;;
57331;SDS011;43164;50.908;18.092;2022-10-04T14:02:39;8.00;;;2.30;;
57331;SDS011;43164;50.908;18.092;2022-10-04T14:08:08;15.00;;;7.10;;
57331;SDS011;43164;50.908;18.092;2022-10-04T14:21:53;12.30;;;5.10;;
57331;SDS011;43164;50.908;18.092;2022-10-04T14:28:17;15.00;;;6.30;;
57331;SDS011;43164;50.908;18.092;2022-10-04T15:02:08;23.90;;;12.00;;
57331;SDS011;43164;50.908;18.092;2022-10-04T15:13:32;5.90;;;0.90;;
57331;SDS011;43164;50.908;18.092;2022-10-04T15:16:44;5.20;;;0.80;;
57331;SDS011;43164;50.908;18.092;2022-10-04T15:19:27;4.60;;;1.80;;
57331;SDS011;43164;50.908;18.092;2022-10-04T15:22:21;5.70;;;1.50;;
57331;SDS011;43164;50.908;18.092;2022-10-04T15:25:35;8.90;;;1.40;;
57331;SDS011;43164;50.908;18.092;2022-10-04T15:38:00;10.70;;;3.70;;
57331;SDS011;43164;50.908;18.092;2022-10-04T15:50:28;9.10;;;1.10;;
57331;SDS011;43164;50.908;18.092;2022-10-04T17:14:00;16.80;;;5.50;;
57331;SDS011;43164;50.908;18.092;2022-10-04T17:16:37;11.30;;;3.60;;
57331;SDS011;43164;50.908;18.092;2022-10-04T17:36:14;14.20;;;5.60;;
57331;SDS011;43164;50.908;18.092;2022-10-04T17:38:54;20.20;;;6.80;;
57331;SDS011;43164;50.908;18.092;2022-10-04T17:41:42;21.40;;;6.60;;
57331;SDS011;43164;50.908;18.092;2022-10-04T17:47:35;14.30;;;4.70;;
57331;SDS011;43164;50.908;18.092;2022-10-04T17:54:01;15.80;;;5.80;;
57331;SDS011;43164;50.908;18.092;2022-10-04T17:59:41;15.50;;;4.90;;
57331;SDS011;43164;50.908;18.092;2022-10-04T18:05:20;12.10;;;4.30;;
57331;SDS011;43164;50.908;18.092;2022-10-04T18:08:02;15.10;;;4.50;;
57331;SDS011;43164;50.908;18.092;2022-10-04T18:11:21;14.40;;;4.90;;
57331;SDS011;43164;50.908;18.092;2022-10-04T18:24:41;12.70;;;4.00;;
57331;SDS011;43164;50.908;18.092;2022-10-04T18:27:17;10.50;;;3.70;;
57331;SDS011;43164;50.908;18.092;2022-10-04T18:30:18;10.10;;;4.00;;
57331;SDS011;43164;50.908;18.092;2022-10-04T18:32:51;13.30;;;5.20;;
57331;SDS011;43164;50.908;18.092;2022-10-04T18:36:27;11.60;;;5.30;;
57331;SDS011;43164;50.908;18.092;2022-10-04T18:39:15;14.00;;;4.90;;
57331;SDS011;43164;50.908;18.092;2022-10-04T18:42:05;11.20;;;4.60;;
57331;SDS011;43164;50.908;18.092;2022-10-04T18:44:43;10.20;;;3.20;;
57331;SDS011;43164;50.908;18.092;2022-10-04T18:58:05;11.10;;;2.80;;
57331;SDS011;43164;50.908;18.092;2022-10-04T19:07:52;11.20;;;3.70;;
57331;SDS011;43164;50.908;18.092;2022-10-04T19:56:27;9.90;;;3.00;;
57331;SDS011;43164;50.908;18.092;2022-10-04T20:34:48;10.70;;;3.50;;
57331;SDS011;43164;50.908;18.092;2022-10-04T21:08:31;12.10;;;3.20;;
57331;SDS011;43164;50.908;18.092;2022-10-04T21:15:00;11.80;;;3.70;;
57331;SDS011;43164;50.908;18.092;2022-10-04T21:18:16;10.90;;;3.00;;
57331;SDS011;43164;50.908;18.092;2022-10-04T21:21:14;15.00;;;4.00;;
57331;SDS011;43164;50.908;18.092;2022-10-04T21:24:34;9.40;;;4.00;;
57331;SDS011;43164;50.908;18.092;2022-10-04T21:30:05;11.30;;;4.40;;
57331;SDS011;43164;50.908;18.092;2022-10-04T21:32:42;12.30;;;3.60;;
57331;SDS011;43164;50.908;18.092;2022-10-04T21:35:10;16.10;;;4.80;;
57331;SDS011;43164;50.908;18.092;2022-10-04T21:37:39;12.00;;;4.80;;
57331;SDS011;43164;50.908;18.092;2022-10-04T21:40:08;12.00;;;4.40;;
57331;SDS011;43164;50.908;18.092;2022-10-04T21:42:37;9.70;;;4.00;;
57331;SDS011;43164;50.908;18.092;2022-10-04T21:45:05;12.50;;;4.20;;
57331;SDS011;43164;50.908;18.092;2022-10-04T21:47:33;10.50;;;3.70;;
57331;SDS011;43164;50.908;18.092;2022-10-04T21:50:02;13.50;;;5.50;;
57331;SDS011;43164;50.908;18.092;2022-10-04T21:52:31;13.10;;;4.80;;
57331;SDS011;43164;50.908;18.092;2022-10-04T21:54:59;14.10;;;4.70;;
57331;SDS011;43164;50.908;18.092;2022-10-04T21:57:27;18.50;;;4.30;;
57331;SDS011;43164;50.908;18.092;2022-10-04T21:59:54;13.80;;;4.60;;
57331;SDS011;43164;50.908;18.092;2022-10-04T22:02:22;9.90;;;3.90;;
57331;SDS011;43164;50.908;18.092;2022-10-04T22:04:49;15.40;;;4.40;;
57331;SDS011;43164;50.908;18.092;2022-10-04T22:07:19;12.60;;;4.60;;
57331;SDS011;43164;50.908;18.092;2022-10-04T22:09:47;14.60;;;4.20;;
57331;SDS011;43164;50.908;18.092;2022-10-04T22:12:14;13.50;;;4.70;;
57331;SDS011;43164;50.908;18.092;2022-10-04T22:14:42;10.80;;;4.50;;
57331;SDS011;43164;50.908;18.092;2022-10-04T22:17:10;16.30;;;4.90;;
57331;SDS011;43164;50.908;18.092;2022-10-04T22:19:37;11.90;;;4.20;;
57331;SDS011;43164;50.908;18.092;2022-10-04T22:22:05;11.10;;;4.40;;
57331;SDS011;43164;50.908;18.092;2022-10-04T22:24:38;14.50;;;4.40;;
57331;SDS011;43164;50.908;18.092;2022-10-04T22:27:16;9.10;;;4.10;;
57331;SDS011;43164;50.908;18.092;2022-10-04T22:29:45;13.20;;;4.60;;
57331;SDS011;43164;50.908;18.092;2022-10-04T22:32:33;11.60;;;4.20;;
57331;SDS011;43164;50.908;18.092;2022-10-04T22:35:05;10.20;;;3.80;;
57331;SDS011;43164;50.908;18.092;2022-10-04T22:37:40;12.90;;;3.80;;
57331;SDS011;43164;50.908;18.092;2022-10-04T22:40:20;11.20;;;4.10;;
57331;SDS011;43164;50.908;18.092;2022-10-04T22:42:51;12.90;;;4.50;;
57331;SDS011;43164;50.908;18.092;2022-10-04T22:45:21;11.20;;;4.70;;
57331;SDS011;43164;50.908;18.092;2022-10-04T22:47:50;13.90;;;4.70;;
57331;SDS011;43164;50.908;18.092;2022-10-04T22:50:36;16.20;;;5.50;;
57331;SDS011;43164;50.908;18.092;2022-10-04T22:53:09;16.70;;;5.90;;
57331;SDS011;43164;50.908;18.092;2022-10-04T22:55:45;14.60;;;5.40;;
57331;SDS011;43164;50.908;18.092;2022-10-04T22:58:17;11.80;;;4.90;;
57331;SDS011;43164;50.908;18.092;2022-10-04T23:00:46;17.30;;;5.20;;
57331;SDS011;43164;50.908;18.092;2022-10-04T23:03:27;14.30;;;5.10;;
57331;SDS011;43164;50.908;18.092;2022-10-04T23:05:58;16.00;;;5.70;;
57331;SDS011;43164;50.908;18.092;2022-10-04T23:08:28;15.40;;;5.20;;
57331;SDS011;43164;50.908;18.092;2022-10-04T23:10:56;10.90;;;4.80;;
57331;SDS011;43164;50.908;18.092;2022-10-04T23:13:25;12.60;;;4.80;;
57331;SDS011;43164;50.908;18.092;2022-10-04T23:15:54;14.80;;;4.90;;
57331;SDS011;43164;50.908;18.092;2022-10-04T23:18:28;13.10;;;4.50;;
57331;SDS011;43164;50.908;18.092;2022-10-04T23:20:58;20.30;;;4.70;;
57331;SDS011;43164;50.908;18.092;2022-10-04T23:23:46;11.70;;;4.60;;
57331;SDS011;43164;50.908;18.092;2022-10-04T23:26:18;9.70;;;4.70;;
57331;SDS011;43164;50.908;18.092;2022-10-04T23:28:49;12.10;;;4.40;;
57331;SDS011;43164;50.908;18.092;2022-10-04T23:31:23;13.40;;;5.20;;
57331;SDS011;43164;50.908;18.092;2022-10-04T23:33:53;16.20;;;5.30;;
57331;SDS011;43164;50.908;18.092;2022-10-04T23:36:22;13.00;;;5.20;;
57331;SDS011;43164;50.908;18.092;2022-10-04T23:38:54;18.40;;;6.40;;
57331;SDS011;43164;50.908;18.092;2022-10-04T23:41:26;15.60;;;6.90;;
57331;SDS011;43164;50.908;18.092;2022-10-04T23:43:53;15.20;;;7.20;;
57331;SDS011;43164;50.908;18.092;2022-10-04T23:46:21;13.40;;;6.00;;
57331;SDS011;43164;50.908;18.092;2022-10-04T23:48:50;16.10;;;6.90;;
57331;SDS011;43164;50.908;18.092;2022-10-04T23:51:17;14.70;;;6.70;;
57331;SDS011;43164;50.908;18.092;2022-10-04T23:53:45;17.60;;;6.30;;
57331;SDS011;43164;50.908;18.092;2022-10-04T23:56:20;14.80;;;6.90;;
57331;SDS011;43164;50.908;18.092;2022-10-04T23:58:50;15.00;;;6.60;;
